createdAt,value
2023-11-24T00:00:15.725Z,60.10
2023-11-24T00:02:42.317Z,59.89
2023-11-24T00:05:09.093Z,60.21
2023-11-24T00:07:36.240Z,60.68
2023-11-24T00:10:03.994Z,60.20
2023-11-24T00:12:30.587Z,61.03
2023-11-24T00:14:57.251Z,62.40
2023-11-24T00:17:23.735Z,63.78
2023-11-24T00:19:50.245Z,64.81
2023-11-24T00:22:16.727Z,65.42
2023-11-24T00:24:43.198Z,66.25
2023-11-24T00:27:09.671Z,67.47
2023-11-24T00:29:36.278Z,67.76
2023-11-24T00:32:02.973Z,67.92
2023-11-24T00:34:29.541Z,68.83
2023-11-24T00:36:56.155Z,69.18
2023-11-24T00:39:22.671Z,69.72
2023-11-24T00:41:49.261Z,70.53
2023-11-24T00:44:15.837Z,70.59
2023-11-24T00:46:42.477Z,70.63
2023-11-24T00:49:08.946Z,70.87
2023-11-24T00:51:35.500Z,71.52
2023-11-24T00:54:02.062Z,71.39
2023-11-24T00:56:28.603Z,71.06
2023-11-24T00:58:55.116Z,71.99
2023-11-24T01:01:21.712Z,72.23
2023-11-24T01:03:48.270Z,72.00
2023-11-24T01:06:14.843Z,71.84
2023-11-24T01:08:41.367Z,72.20
2023-11-24T01:11:07.924Z,71.56
2023-11-24T01:13:34.553Z,71.28
2023-11-24T01:16:01.146Z,70.94
2023-11-24T01:18:27.773Z,71.28
2023-11-24T01:20:54.323Z,71.35
2023-11-24T01:23:20.852Z,71.12
2023-11-24T01:25:47.681Z,71.04
2023-11-24T01:28:14.222Z,71.48
2023-11-24T01:30:41.616Z,71.47
2023-11-24T01:33:08.203Z,71.56
2023-11-24T01:35:34.827Z,71.94
2023-11-24T01:38:01.367Z,71.95
2023-11-24T01:40:27.901Z,71.14
2023-11-24T01:42:54.396Z,71.24
2023-11-24T01:45:20.957Z,71.88
2023-11-24T01:47:47.474Z,70.89
2023-11-24T01:50:15.702Z,70.96
2023-11-24T01:52:42.526Z,71.62
2023-11-24T01:55:09.593Z,71.91
2023-11-24T01:57:36.296Z,72.14
2023-11-24T02:00:03.119Z,72.09
2023-11-24T02:02:30.464Z,71.70
2023-11-24T02:04:57.306Z,72.26
2023-11-24T02:07:24.034Z,71.95
2023-11-24T02:09:51.009Z,72.07
2023-11-24T02:12:17.585Z,72.32
2023-11-24T02:14:44.125Z,73.28
2023-11-24T02:17:10.650Z,73.73
2023-11-24T02:19:37.317Z,74.33
2023-11-24T02:22:03.835Z,74.14
2023-11-24T02:24:30.372Z,74.50
2023-11-24T02:26:57.143Z,74.41
2023-11-24T02:29:23.682Z,75.77
2023-11-24T02:31:50.210Z,75.59
2023-11-24T02:34:16.827Z,75.58
2023-11-24T02:36:43.480Z,75.65
2023-11-24T02:39:10.210Z,75.81
2023-11-24T02:41:36.768Z,75.71
2023-11-24T02:44:03.444Z,75.33
2023-11-24T02:46:29.946Z,75.39
2023-11-24T02:48:56.687Z,75.81
2023-11-24T02:51:23.457Z,75.48
2023-11-24T02:53:50.076Z,75.76
2023-11-24T02:56:16.682Z,75.40
2023-11-24T02:58:43.245Z,74.30
2023-11-24T03:01:11.870Z,74.18
2023-11-24T03:03:38.456Z,74.77
2023-11-24T03:06:05.066Z,74.38
2023-11-24T03:08:31.899Z,73.63
2023-11-24T03:10:58.479Z,72.57
2023-11-24T03:13:25.116Z,73.21
2023-11-24T03:15:52.538Z,72.38
2023-11-24T03:18:19.109Z,72.92
2023-11-24T03:20:45.753Z,72.91
2023-11-24T03:23:12.306Z,73.42
2023-11-24T03:25:38.836Z,73.66
2023-11-24T03:28:05.423Z,73.73
2023-11-24T03:30:31.966Z,73.80
2023-11-24T03:32:58.559Z,73.75
2023-11-24T03:35:25.123Z,73.69
2023-11-24T03:37:51.781Z,74.70
2023-11-24T03:40:18.403Z,74.68
2023-11-24T03:42:45.008Z,74.01
2023-11-24T03:45:11.740Z,73.24
2023-11-24T03:47:38.308Z,73.66
2023-11-24T03:50:05.341Z,73.15
2023-11-24T03:52:32.022Z,73.89
2023-11-24T03:54:58.568Z,74.40
2023-11-24T03:57:25.323Z,74.13
2023-11-24T03:59:51.988Z,74.28
2023-11-24T04:02:18.550Z,73.79
2023-11-24T04:04:45.368Z,73.83
2023-11-24T04:07:11.964Z,73.72
2023-11-24T04:09:38.489Z,74.07
2023-11-24T04:12:05.362Z,74.08
2023-11-24T04:14:31.950Z,74.47
2023-11-24T04:17:01.273Z,74.15
2023-11-24T04:19:28.091Z,74.74
2023-11-24T04:21:54.601Z,74.67
2023-11-24T04:24:21.180Z,75.69
2023-11-24T04:26:47.707Z,76.10
2023-11-24T04:29:14.232Z,76.21
2023-11-24T04:31:40.813Z,76.46
2023-11-24T04:34:07.506Z,76.67
2023-11-24T04:36:34.199Z,77.28
2023-11-24T04:39:00.724Z,76.90
2023-11-24T04:41:27.623Z,77.40
2023-11-24T04:43:54.272Z,77.15
2023-11-24T04:46:20.928Z,77.38
2023-11-24T04:48:47.527Z,77.98
2023-11-24T04:51:14.032Z,77.76
2023-11-24T04:53:41.556Z,76.71
2023-11-24T04:56:08.417Z,76.98
2023-11-24T04:58:34.956Z,77.34
2023-11-24T05:01:01.549Z,76.68
2023-11-24T05:03:28.186Z,77.34
2023-11-24T05:05:54.772Z,75.46
2023-11-24T05:08:21.260Z,74.57
2023-11-24T05:10:47.827Z,73.21
2023-11-24T05:13:14.360Z,73.06
2023-11-24T05:15:40.916Z,73.21
2023-11-24T05:18:07.594Z,74.41
2023-11-24T05:20:34.126Z,75.47
2023-11-24T05:23:00.683Z,76.25
2023-11-24T05:25:27.196Z,76.95
2023-11-24T05:27:53.772Z,77.05
2023-11-24T05:30:20.273Z,77.19
2023-11-24T05:32:46.877Z,76.77
2023-11-24T05:35:13.461Z,77.28
2023-11-24T05:37:40.003Z,77.87
2023-11-24T05:40:07.493Z,77.88
2023-11-24T05:42:34.101Z,77.51
2023-11-24T05:45:00.692Z,77.52
2023-11-24T05:47:27.378Z,77.13
2023-11-24T05:49:53.911Z,76.99
2023-11-24T05:52:20.544Z,76.62
2023-11-24T05:54:47.288Z,76.76
2023-11-24T05:57:13.802Z,76.56
2023-11-24T05:59:40.500Z,76.89
2023-11-24T06:02:07.196Z,77.45
2023-11-24T06:04:33.858Z,77.31
2023-11-24T06:07:00.533Z,77.77
2023-11-24T06:09:27.160Z,78.14
2023-11-24T06:11:53.754Z,77.80
2023-11-24T06:14:20.280Z,77.45
2023-11-24T06:16:46.847Z,76.96
2023-11-24T06:19:13.459Z,77.10
2023-11-24T06:21:39.987Z,76.71
2023-11-24T06:24:06.877Z,76.24
2023-11-24T06:26:33.494Z,76.51
2023-11-24T06:28:59.994Z,73.94
2023-11-24T06:31:26.584Z,69.09
2023-11-24T06:33:53.206Z,71.63
2023-11-24T06:36:19.851Z,74.91
2023-11-24T06:38:46.334Z,76.72
2023-11-24T06:41:12.877Z,77.00
2023-11-24T06:43:39.446Z,76.92
2023-11-24T06:46:06.729Z,74.42
2023-11-24T06:48:33.522Z,74.20
2023-11-24T06:51:00.221Z,75.58
2023-11-24T06:53:26.815Z,76.69
2023-11-24T06:55:53.348Z,77.01
2023-11-24T06:58:19.870Z,78.30
2023-11-24T07:00:46.445Z,77.99
2023-11-24T07:03:12.981Z,78.18
2023-11-24T07:05:39.541Z,78.16
2023-11-24T07:08:06.097Z,79.72
2023-11-24T07:10:32.774Z,79.32
2023-11-24T07:12:59.336Z,79.03
2023-11-24T07:15:26.111Z,79.43
2023-11-24T07:17:52.852Z,79.96
2023-11-24T07:20:19.412Z,79.79
2023-11-24T07:22:46.017Z,79.92
2023-11-24T07:25:13.115Z,78.56
2023-11-24T07:27:39.657Z,77.84
2023-11-24T07:30:06.893Z,77.42
2023-11-24T07:32:33.563Z,77.65
2023-11-24T07:35:00.297Z,73.17
2023-11-24T07:37:26.852Z,72.82
2023-11-24T07:39:54.193Z,73.03
2023-11-24T07:42:20.767Z,70.93
2023-11-24T07:44:47.308Z,70.65
2023-11-24T07:47:13.802Z,71.07
2023-11-24T07:49:40.309Z,71.17
2023-11-24T07:52:07.085Z,71.27
2023-11-24T07:54:33.791Z,70.19
2023-11-24T07:57:00.317Z,68.73
2023-11-24T07:59:26.889Z,67.81
2023-11-24T08:01:53.694Z,67.72
2023-11-24T08:04:20.379Z,66.70
2023-11-24T08:06:47.107Z,66.22
2023-11-24T08:09:13.837Z,64.99
2023-11-24T08:11:40.388Z,63.39
2023-11-24T08:14:06.993Z,63.36
2023-11-24T08:16:33.585Z,62.59
2023-11-24T08:19:00.281Z,61.54
2023-11-24T08:21:26.919Z,61.92
2023-11-24T08:23:53.550Z,60.95
2023-11-24T08:26:20.461Z,59.50
2023-11-24T08:28:47.146Z,59.48
2023-11-24T08:31:21.014Z,58.90
2023-11-24T08:33:48.049Z,59.36
2023-11-24T08:36:14.614Z,58.28
2023-11-24T08:38:41.228Z,57.06
2023-11-24T08:41:26.227Z,56.68
2023-11-24T08:44:01.598Z,57.22
2023-11-24T08:46:28.343Z,57.18
2023-11-24T08:48:54.970Z,56.73
2023-11-24T08:51:21.520Z,55.96
2023-11-24T08:53:48.100Z,54.68
2023-11-24T08:56:14.644Z,54.59
2023-11-24T08:58:41.170Z,52.86
2023-11-24T09:01:07.854Z,52.55
2023-11-24T09:03:34.507Z,52.27
2023-11-24T09:06:01.201Z,51.34
2023-11-24T09:08:27.830Z,51.84
2023-11-24T09:10:54.543Z,50.88
2023-11-24T09:13:21.131Z,50.08
2023-11-24T09:15:47.725Z,49.43
2023-11-24T09:18:14.447Z,49.68
2023-11-24T09:20:41.013Z,49.27
2023-11-24T09:23:07.598Z,48.45
2023-11-24T09:25:34.104Z,48.44
2023-11-24T09:28:01.727Z,48.20
2023-11-24T09:30:28.735Z,47.57
2023-11-24T09:32:55.512Z,47.24
2023-11-24T09:35:26.415Z,46.11
2023-11-24T09:37:52.997Z,45.97
2023-11-24T09:40:20.160Z,45.56
2023-11-24T09:42:47.548Z,44.06
2023-11-24T09:45:18.024Z,43.01
2023-11-24T09:47:48.276Z,41.06
2023-11-24T09:50:15.270Z,40.59
2023-11-24T09:52:43.865Z,41.03
2023-11-24T09:55:10.519Z,41.34
2023-11-24T09:57:37.213Z,40.82
2023-11-24T10:00:04.086Z,40.93
2023-11-24T10:02:30.797Z,40.79
2023-11-24T10:04:57.512Z,40.50
2023-11-24T10:07:24.224Z,40.56
2023-11-24T10:09:51.329Z,39.79
2023-11-24T10:12:18.764Z,39.37
2023-11-24T10:14:45.594Z,39.22
2023-11-24T10:17:12.307Z,39.05
2023-11-24T10:19:39.155Z,38.99
2023-11-24T10:22:05.860Z,39.07
2023-11-24T10:24:36.852Z,38.06
2023-11-24T10:27:23.360Z,37.29
2023-11-24T10:29:51.040Z,37.38
2023-11-24T10:32:19.710Z,37.14
2023-11-24T10:34:47.036Z,37.52
2023-11-24T10:37:16.305Z,36.99
2023-11-24T10:39:45.933Z,35.77
2023-11-24T10:42:13.141Z,35.73
2023-11-24T10:44:41.865Z,35.46
2023-11-24T10:47:11.019Z,35.81
2023-11-24T10:49:58.701Z,33.63
2023-11-24T10:52:36.165Z,34.32
2023-11-24T10:55:10.658Z,33.60
2023-11-24T10:57:37.294Z,34.08
2023-11-24T11:00:04.715Z,33.05
2023-11-24T11:02:31.980Z,33.50
2023-11-24T11:05:02.490Z,33.22
2023-11-24T11:07:41.489Z,33.99
2023-11-24T11:10:08.838Z,33.99
2023-11-24T11:12:40.002Z,34.11
2023-11-24T11:15:10.347Z,34.72
2023-11-24T11:17:37.348Z,34.71
2023-11-24T11:20:10.563Z,34.35
2023-11-24T11:22:37.608Z,34.62
2023-11-24T11:25:25.705Z,34.61
2023-11-24T11:27:53.105Z,34.54
2023-11-24T11:30:20.702Z,35.04
2023-11-24T11:32:47.354Z,34.07
2023-11-24T11:35:14.070Z,34.98
2023-11-24T11:37:42.362Z,34.11
2023-11-24T11:40:13.926Z,33.95
2023-11-24T11:42:55.855Z,33.91
2023-11-24T11:45:22.549Z,35.01
2023-11-24T11:47:50.156Z,34.10
2023-11-24T11:50:20.951Z,34.55
2023-11-24T11:52:50.419Z,35.03
2023-11-24T11:55:24.223Z,34.97
2023-11-24T11:57:56.891Z,34.82
2023-11-24T12:00:31.064Z,34.46
2023-11-24T12:02:59.353Z,34.65
2023-11-24T12:05:26.444Z,34.63
2023-11-24T12:07:53.700Z,34.66
2023-11-24T12:10:20.591Z,35.31
2023-11-24T12:12:50.628Z,36.78
2023-11-24T12:15:17.358Z,38.68
2023-11-24T12:17:51.193Z,38.64
2023-11-24T12:20:18.030Z,36.14
2023-11-24T12:22:45.845Z,37.52
2023-11-24T12:25:12.949Z,37.33
2023-11-24T12:27:42.969Z,38.02
2023-11-24T12:30:13.521Z,37.84
2023-11-24T12:32:43.578Z,37.80
2023-11-24T12:35:10.644Z,37.48
2023-11-24T12:37:41.567Z,37.24
2023-11-24T12:40:09.658Z,38.20
2023-11-24T12:42:36.327Z,38.14
2023-11-24T12:45:03.148Z,39.16
2023-11-24T12:50:18.108Z,38.40
2023-11-24T12:52:46.278Z,38.42
2023-11-24T12:55:13.338Z,38.69
2023-11-24T12:57:41.700Z,38.51
2023-11-24T13:00:09.335Z,39.03
2023-11-24T13:02:37.609Z,41.01
2023-11-24T13:05:04.662Z,40.50
2023-11-24T13:07:31.434Z,41.28
2023-11-24T13:09:58.153Z,40.78
2023-11-24T13:12:24.786Z,40.65
2023-11-24T13:14:51.311Z,40.31
2023-11-24T13:17:17.910Z,40.73
2023-11-24T13:19:44.578Z,40.95
2023-11-24T13:22:11.455Z,41.06
2023-11-24T13:24:38.375Z,40.81
2023-11-24T13:27:05.953Z,40.92
2023-11-24T13:29:32.533Z,41.07
2023-11-24T13:31:59.378Z,41.01
2023-11-24T13:34:25.961Z,40.61
2023-11-24T13:36:52.598Z,41.30
2023-11-24T13:39:19.198Z,40.80
2023-11-24T13:41:45.904Z,39.77
2023-11-24T13:44:12.875Z,39.28
2023-11-24T13:46:39.732Z,38.57
2023-11-24T13:49:12.412Z,37.60
2023-11-24T13:51:39.089Z,36.59
2023-11-24T13:54:05.908Z,36.91
2023-11-24T13:56:32.548Z,38.22
2023-11-24T13:58:59.713Z,38.80
2023-11-24T14:01:26.593Z,39.67
2023-11-24T14:03:53.699Z,39.56
2023-11-24T14:06:20.308Z,39.48
2023-11-24T14:08:46.886Z,40.14
2023-11-24T14:11:13.500Z,40.62
2023-11-24T14:13:40.128Z,39.83
2023-11-24T14:16:07.163Z,39.79
2023-11-24T14:18:33.961Z,39.00
2023-11-24T14:21:00.603Z,38.67
2023-11-24T14:23:27.111Z,39.64
2023-11-24T14:25:53.720Z,39.83
2023-11-24T14:28:20.656Z,40.60
2023-11-24T14:30:47.256Z,40.58
2023-11-24T14:33:14.007Z,41.26
2023-11-24T14:35:40.540Z,41.65
2023-11-24T14:38:07.149Z,41.81
2023-11-24T14:40:33.769Z,41.97
2023-11-24T14:43:00.670Z,41.99
2023-11-24T14:45:27.303Z,42.61
2023-11-24T14:47:53.861Z,42.23
2023-11-24T14:50:21.346Z,42.41
2023-11-24T14:52:47.950Z,42.86
2023-11-24T14:55:14.588Z,42.90
2023-11-24T14:57:41.126Z,43.22
2023-11-24T15:00:08.167Z,43.51
2023-11-24T15:02:34.976Z,44.19
2023-11-24T15:05:01.752Z,44.37
2023-11-24T15:07:28.441Z,45.05
2023-11-24T15:09:54.952Z,44.67
2023-11-24T15:12:21.524Z,44.04
2023-11-24T15:14:48.055Z,44.80
2023-11-24T15:17:14.646Z,46.20
2023-11-24T15:19:41.277Z,46.80
2023-11-24T15:22:08.250Z,47.76
2023-11-24T15:24:35.258Z,49.05
2023-11-24T15:27:01.855Z,50.00
2023-11-24T15:29:28.373Z,51.60
2023-11-24T15:31:55.060Z,53.79
2023-11-24T15:34:21.732Z,55.96
2023-11-24T15:36:48.921Z,57.57
2023-11-24T15:39:15.486Z,60.27
2023-11-24T15:41:42.128Z,61.71
2023-11-24T15:44:11.825Z,63.79
2023-11-24T15:46:39.910Z,65.47
2023-11-24T15:49:06.726Z,66.44
2023-11-24T15:51:33.302Z,67.87
2023-11-24T15:53:59.916Z,68.96
2023-11-24T15:56:29.564Z,70.29
2023-11-24T15:58:56.087Z,71.21
2023-11-24T16:01:23.745Z,71.94
2023-11-24T16:03:50.870Z,68.43
2023-11-24T16:06:18.126Z,70.21
2023-11-24T16:08:44.639Z,71.96
2023-11-24T16:11:11.836Z,70.80
2023-11-24T16:13:38.639Z,69.33
2023-11-24T16:16:05.699Z,70.46
2023-11-24T16:18:35.466Z,72.58
2023-11-24T16:21:02.528Z,71.75
2023-11-24T16:23:29.010Z,72.14
2023-11-24T16:25:55.577Z,72.31
2023-11-24T16:28:22.198Z,71.99
2023-11-24T16:30:48.798Z,73.37
2023-11-24T16:33:15.546Z,70.57
2023-11-24T16:35:42.052Z,73.33
2023-11-24T16:38:08.819Z,73.81
2023-11-24T16:40:35.535Z,74.07
2023-11-24T16:43:02.250Z,75.27
2023-11-24T16:45:28.801Z,75.91
2023-11-24T16:47:55.334Z,76.51
2023-11-24T16:50:21.901Z,73.85
2023-11-24T16:52:48.454Z,75.95
2023-11-24T16:55:15.019Z,77.03
2023-11-24T16:57:41.653Z,76.76
2023-11-24T17:00:08.837Z,76.53
2023-11-24T17:02:35.657Z,76.36
2023-11-24T17:05:02.553Z,76.68
2023-11-24T17:07:29.144Z,76.60
2023-11-24T17:09:55.815Z,76.65
2023-11-24T17:12:22.390Z,77.19
2023-11-24T17:14:48.954Z,76.80
2023-11-24T17:17:15.779Z,77.10
2023-11-24T17:19:42.312Z,76.91
2023-11-24T17:22:08.936Z,77.55
2023-11-24T17:24:35.522Z,77.59
2023-11-24T17:27:02.436Z,77.18
2023-11-24T17:29:28.929Z,77.29
2023-11-24T17:31:55.498Z,78.08
2023-11-24T17:34:22.821Z,78.58
2023-11-24T17:36:49.594Z,79.03
2023-11-24T17:39:16.171Z,79.48
2023-11-24T17:41:42.810Z,79.83
2023-11-24T17:44:10.095Z,80.60
2023-11-24T17:46:39.397Z,80.58
2023-11-24T17:49:06.444Z,80.61
2023-11-24T17:51:33.098Z,81.54
2023-11-24T17:54:00.530Z,82.07
2023-11-24T17:56:27.638Z,82.22
2023-11-24T17:58:54.206Z,82.86
2023-11-24T18:01:20.846Z,83.82
2023-11-24T18:03:47.744Z,84.37
2023-11-24T18:06:14.392Z,85.18
2023-11-24T18:08:40.934Z,86.15
2023-11-24T18:11:07.797Z,86.61
2023-11-24T18:13:34.748Z,84.99
2023-11-24T18:16:01.391Z,85.84
2023-11-24T18:18:28.155Z,86.98
2023-11-24T18:20:54.712Z,86.52
2023-11-24T18:23:21.275Z,84.36
2023-11-24T18:25:47.858Z,85.88
2023-11-24T18:28:14.560Z,86.95
2023-11-24T18:30:41.214Z,87.29
2023-11-24T18:33:07.860Z,88.45
2023-11-24T18:35:34.503Z,87.89
2023-11-24T18:38:01.135Z,87.79
2023-11-24T18:40:27.779Z,87.98
2023-11-24T18:42:54.566Z,88.05
2023-11-24T18:45:21.119Z,88.35
2023-11-24T18:47:47.935Z,88.82
2023-11-24T18:50:14.583Z,88.96
2023-11-24T18:52:41.459Z,88.86
2023-11-24T18:55:08.265Z,88.96
2023-11-24T18:57:35.037Z,89.13
2023-11-24T19:00:02.072Z,89.87
2023-11-24T19:02:28.753Z,90.49
2023-11-24T19:04:55.732Z,90.00
2023-11-24T19:07:22.857Z,89.81
2023-11-24T19:09:52.575Z,89.46
2023-11-24T19:12:19.358Z,90.16
2023-11-24T19:14:45.899Z,90.32
2023-11-24T19:17:12.456Z,89.73
2023-11-24T19:19:39.029Z,90.28
2023-11-24T19:22:05.567Z,90.58
2023-11-24T19:24:32.114Z,90.91
2023-11-24T19:26:58.667Z,91.45
2023-11-24T19:29:25.128Z,92.47
2023-11-24T19:31:51.768Z,93.52
2023-11-24T19:34:18.362Z,93.29
2023-11-24T19:36:44.950Z,94.13
2023-11-24T19:39:11.457Z,90.21
2023-11-24T19:41:38.170Z,91.91
2023-11-24T19:44:05.151Z,90.85
2023-11-24T19:46:31.784Z,91.31
2023-11-24T19:48:58.333Z,91.57
2023-11-24T19:51:24.829Z,91.94
2023-11-24T19:53:53.443Z,92.48
2023-11-24T19:56:20.976Z,93.12
2023-11-24T19:58:47.525Z,93.21
2023-11-24T20:01:20.324Z,93.68
2023-11-24T20:03:47.491Z,94.13
2023-11-24T20:06:14.258Z,94.17
2023-11-24T20:08:40.838Z,93.33
2023-11-24T20:11:07.362Z,94.21
2023-11-24T20:13:34.104Z,94.16
2023-11-24T20:16:00.820Z,93.58
2023-11-24T20:18:29.587Z,93.11
2023-11-24T20:20:56.140Z,93.31
2023-11-24T20:23:22.685Z,92.81
2023-11-24T20:25:49.239Z,93.09
2023-11-24T20:28:15.852Z,93.02
2023-11-24T20:30:42.349Z,92.11
2023-11-24T20:33:08.893Z,91.84
2023-11-24T20:35:35.418Z,91.88
2023-11-24T20:38:01.963Z,91.42
2023-11-24T20:40:28.593Z,91.47
2023-11-24T20:42:55.177Z,91.58
2023-11-24T20:45:21.806Z,91.30
2023-11-24T20:47:48.481Z,91.13
2023-11-24T20:50:15.089Z,91.74
2023-11-24T20:52:41.673Z,91.95
2023-11-24T20:55:08.442Z,91.80
2023-11-24T20:57:34.981Z,91.70
2023-11-24T21:00:01.561Z,91.52
2023-11-24T21:02:28.220Z,91.79
2023-11-24T21:04:54.768Z,92.15
2023-11-24T21:07:21.333Z,91.79
2023-11-24T21:09:47.955Z,93.07
2023-11-24T21:12:14.441Z,92.97
2023-11-24T21:14:40.951Z,93.01
2023-11-24T21:17:07.569Z,93.12
2023-11-24T21:19:34.145Z,93.38
2023-11-24T21:22:00.790Z,92.87
2023-11-24T21:24:27.416Z,93.25
2023-11-24T21:26:53.910Z,93.08
2023-11-24T21:29:20.432Z,93.33
2023-11-24T21:31:46.990Z,93.02
2023-11-24T21:34:13.537Z,93.25
2023-11-24T21:36:40.131Z,93.84
2023-11-24T21:39:06.721Z,92.79
2023-11-24T21:41:33.302Z,93.23
2023-11-24T21:43:59.895Z,93.59
2023-11-24T21:46:26.650Z,94.33
2023-11-24T21:48:53.299Z,94.46
2023-11-24T21:51:19.921Z,94.93
2023-11-24T21:53:46.590Z,95.27
2023-11-24T21:56:13.281Z,94.61
2023-11-24T21:58:40.511Z,95.38
2023-11-24T22:01:07.191Z,95.63
2023-11-24T22:03:33.935Z,96.23
2023-11-24T22:06:00.510Z,96.55
2023-11-24T22:08:27.018Z,95.97
2023-11-24T22:10:53.649Z,95.94
2023-11-24T22:13:20.661Z,95.35
2023-11-24T22:15:47.204Z,95.23
2023-11-24T22:18:13.813Z,95.76
2023-11-24T22:20:40.382Z,95.29
2023-11-24T22:23:06.915Z,95.56
2023-11-24T22:25:34.358Z,95.32
2023-11-24T22:28:01.035Z,91.53
2023-11-24T22:30:27.731Z,96.75
2023-11-24T22:32:54.268Z,88.90
2023-11-24T22:35:20.755Z,87.89
2023-11-24T22:37:47.288Z,86.62
2023-11-24T22:40:14.003Z,89.41
2023-11-24T22:42:40.602Z,91.87
2023-11-24T22:45:07.944Z,93.29
2023-11-24T22:47:34.584Z,93.84
2023-11-24T22:50:01.203Z,94.95
2023-11-24T22:52:27.803Z,95.61
2023-11-24T22:54:54.326Z,96.63
2023-11-24T22:57:20.847Z,97.46
2023-11-24T22:59:48.232Z,97.88
2023-11-24T23:02:14.904Z,97.43
2023-11-24T23:04:41.572Z,97.87
2023-11-24T23:07:08.268Z,97.95
2023-11-24T23:09:34.833Z,98.06
2023-11-24T23:12:01.325Z,99.34
2023-11-24T23:14:27.788Z,99.44
2023-11-24T23:16:54.309Z,98.82
2023-11-24T23:19:20.991Z,99.80
2023-11-24T23:21:49.616Z,100.00
2023-11-24T23:24:16.128Z,100.00
2023-11-24T23:26:42.812Z,95.82
2023-11-24T23:29:09.292Z,97.32
2023-11-24T23:31:36.006Z,94.36
2023-11-24T23:34:02.900Z,95.89
2023-11-24T23:36:29.623Z,89.97
2023-11-24T23:38:56.231Z,88.57
2023-11-24T23:41:22.747Z,82.05
2023-11-24T23:43:49.391Z,74.83
2023-11-24T23:46:16.036Z,75.85
2023-11-24T23:48:42.612Z,76.76
2023-11-24T23:51:09.177Z,85.36
2023-11-24T23:53:35.892Z,89.53
2023-11-24T23:56:02.477Z,86.66
2023-11-24T23:58:29.519Z,86.89
